createdAt,value
2019-02-02T00:00:40.138Z,70.71
2019-02-02T00:03:13.170Z,70.65
2019-02-02T00:05:45.358Z,70.71
2019-02-02T00:08:17.666Z,70.66
2019-02-02T00:10:49.979Z,70.78
2019-02-02T00:13:22.310Z,70.68
2019-02-02T00:15:54.615Z,70.66
2019-02-02T00:18:27.115Z,70.64
2019-02-02T00:20:59.377Z,70.68
2019-02-02T00:23:31.621Z,70.80
2019-02-02T00:26:04.572Z,70.72
2019-02-02T00:28:36.860Z,70.63
2019-02-02T00:31:09.089Z,70.55
2019-02-02T00:33:41.627Z,70.50
2019-02-02T00:36:13.820Z,70.53
2019-02-02T00:38:46.025Z,70.47
2019-02-02T00:41:18.341Z,70.53
2019-02-02T00:43:50.723Z,70.66
2019-02-02T00:46:22.980Z,70.61
2019-02-02T00:48:55.415Z,70.69
2019-02-02T00:51:27.606Z,70.76
2019-02-02T00:53:59.839Z,70.80
2019-02-02T00:56:32.051Z,70.73
2019-02-02T00:59:04.308Z,70.77
2019-02-02T01:01:37.633Z,70.84
2019-02-02T01:04:10.062Z,70.77
2019-02-02T01:06:42.310Z,70.73
2019-02-02T01:09:24.614Z,70.73
2019-02-02T01:11:57.038Z,70.77
2019-02-02T01:14:29.348Z,70.83
2019-02-02T01:17:02.668Z,70.73
2019-02-02T01:19:35.085Z,70.60
2019-02-02T01:22:07.324Z,70.62
2019-02-02T01:24:39.682Z,70.67
2019-02-02T01:27:11.904Z,70.67
2019-02-02T01:29:44.093Z,70.55
2019-02-02T01:32:16.437Z,70.56
2019-02-02T01:34:48.659Z,70.48
2019-02-02T01:37:24.198Z,70.50
2019-02-02T01:39:56.448Z,70.49
2019-02-02T01:42:28.761Z,70.39
2019-02-02T01:45:00.961Z,70.52
2019-02-02T01:47:33.241Z,70.57
2019-02-02T01:50:06.787Z,70.61
2019-02-02T01:52:38.998Z,70.67
2019-02-02T01:55:12.561Z,70.75
2019-02-02T01:57:45.071Z,70.86
2019-02-02T02:00:28.838Z,70.78
2019-02-02T02:03:02.248Z,70.86
2019-02-02T02:05:36.133Z,70.80
2019-02-02T02:08:08.393Z,71.01
2019-02-02T02:10:40.640Z,70.96
2019-02-02T02:13:12.868Z,70.85
2019-02-02T02:15:46.179Z,70.92
2019-02-02T02:18:19.305Z,71.05
2019-02-02T02:20:51.518Z,71.16
2019-02-02T02:23:23.745Z,71.16
2019-02-02T02:25:56.095Z,71.21
2019-02-02T02:28:30.417Z,71.23
2019-02-02T02:31:02.640Z,71.10
2019-02-02T02:33:34.935Z,71.06
2019-02-02T02:36:07.241Z,71.19
2019-02-02T02:38:40.326Z,71.43
2019-02-02T02:41:12.610Z,71.42
2019-02-02T02:43:44.818Z,71.46
2019-02-02T02:46:17.014Z,71.64
2019-02-02T02:48:49.325Z,71.86
2019-02-02T02:51:21.551Z,71.94
2019-02-02T02:53:53.894Z,71.99
2019-02-02T02:56:26.332Z,72.11
2019-02-02T02:58:58.645Z,72.09
2019-02-02T03:01:30.840Z,72.15
2019-02-02T03:04:03.125Z,72.36
2019-02-02T03:06:36.538Z,72.26
2019-02-02T03:09:10.198Z,72.29
2019-02-02T03:11:42.528Z,72.42
2019-02-02T03:14:14.770Z,72.50
2019-02-02T03:16:47.191Z,72.66
2019-02-02T03:19:19.410Z,72.68
2019-02-02T03:21:51.688Z,72.75
2019-02-02T03:24:23.911Z,72.89
2019-02-02T03:26:56.217Z,72.93
2019-02-02T03:29:28.562Z,72.96
2019-02-02T03:32:00.873Z,72.87
2019-02-02T03:34:33.070Z,72.77
2019-02-02T03:37:05.296Z,72.71
2019-02-02T03:39:37.578Z,72.60
2019-02-02T03:42:09.877Z,72.69
2019-02-02T03:44:42.171Z,72.71
2019-02-02T03:47:14.379Z,72.87
2019-02-02T03:49:46.629Z,72.76
2019-02-02T03:52:18.847Z,72.55
2019-02-02T03:54:51.428Z,72.52
2019-02-02T03:57:23.663Z,72.61
2019-02-02T03:59:55.927Z,72.55
2019-02-02T04:02:28.180Z,72.93
2019-02-02T04:05:00.548Z,72.93
2019-02-02T04:07:32.763Z,72.87
2019-02-02T04:10:06.149Z,72.86
2019-02-02T04:12:38.705Z,72.92
2019-02-02T04:15:12.059Z,73.12
2019-02-02T04:17:44.405Z,73.18
2019-02-02T04:20:18.558Z,73.11
2019-02-02T04:22:51.240Z,73.03
2019-02-02T04:25:23.996Z,73.08
2019-02-02T04:27:56.354Z,73.21
2019-02-02T04:30:28.709Z,73.32
2019-02-02T04:33:01.488Z,73.41
2019-02-02T04:35:33.681Z,73.59
2019-02-02T04:38:06.687Z,73.46
2019-02-02T04:40:39.125Z,73.58
2019-02-02T04:43:11.412Z,73.58
2019-02-02T04:45:43.628Z,73.60
2019-02-02T04:48:15.912Z,73.52
2019-02-02T04:50:48.159Z,73.67
2019-02-02T04:53:20.366Z,73.60
2019-02-02T04:55:52.702Z,73.83
2019-02-02T04:58:25.044Z,73.94
2019-02-02T05:00:57.317Z,74.01
2019-02-02T05:03:29.541Z,74.10
2019-02-02T05:06:01.777Z,74.04
2019-02-02T05:08:34.033Z,73.96
2019-02-02T05:11:06.239Z,73.93
2019-02-02T05:13:38.544Z,73.87
2019-02-02T05:16:10.734Z,73.90
2019-02-02T05:18:44.519Z,73.84
2019-02-02T05:21:16.752Z,73.76
2019-02-02T05:23:49.011Z,73.70
2019-02-02T05:26:21.212Z,73.73
2019-02-02T05:28:53.532Z,73.84
2019-02-02T05:31:25.758Z,73.86
2019-02-02T05:33:57.983Z,73.99
2019-02-02T05:36:30.184Z,73.96
2019-02-02T05:39:02.501Z,73.90
2019-02-02T05:41:35.661Z,73.81
2019-02-02T05:44:07.898Z,73.74
2019-02-02T05:46:41.233Z,73.80
2019-02-02T05:49:13.515Z,73.96
2019-02-02T05:51:45.730Z,74.01
2019-02-02T05:54:17.982Z,73.92
2019-02-02T05:56:50.277Z,74.20
2019-02-02T05:59:22.596Z,74.21
2019-02-02T06:01:54.788Z,74.12
2019-02-02T06:04:27.171Z,74.20
2019-02-02T06:06:59.407Z,74.23
2019-02-02T06:09:31.646Z,74.10
2019-02-02T06:12:03.884Z,74.20
2019-02-02T06:14:36.115Z,74.07
2019-02-02T06:17:08.376Z,74.14
2019-02-02T06:19:40.637Z,74.09
2019-02-02T06:22:12.985Z,73.89
2019-02-02T06:24:45.256Z,73.91
2019-02-02T06:27:17.613Z,73.92
2019-02-02T06:29:49.779Z,73.67
2019-02-02T06:32:21.990Z,73.81
2019-02-02T06:34:54.207Z,73.69
2019-02-02T06:37:26.492Z,73.91
2019-02-02T06:39:58.712Z,73.93
2019-02-02T06:42:30.950Z,73.85
2019-02-02T06:45:03.148Z,73.94
2019-02-02T06:47:35.444Z,73.99
2019-02-02T06:50:09.503Z,73.90
2019-02-02T06:52:41.883Z,74.08
2019-02-02T06:55:15.088Z,74.18
2019-02-02T06:57:47.682Z,74.09
2019-02-02T07:00:21.724Z,74.03
2019-02-02T07:02:55.966Z,73.98
2019-02-02T07:05:28.378Z,73.96
2019-02-02T07:08:00.904Z,73.91
2019-02-02T07:10:33.378Z,73.92
2019-02-02T07:13:05.866Z,73.96
2019-02-02T07:15:38.093Z,73.86
2019-02-02T07:18:11.407Z,74.02
2019-02-02T07:20:43.738Z,73.97
2019-02-02T07:23:16.088Z,73.98
2019-02-02T07:25:48.525Z,74.01
2019-02-02T07:28:26.330Z,74.04
2019-02-02T07:30:59.077Z,73.99
2019-02-02T07:33:31.838Z,73.84
2019-02-02T07:36:05.993Z,73.90
2019-02-02T07:38:41.529Z,73.80
2019-02-02T07:41:18.647Z,73.88
2019-02-02T07:43:51.259Z,73.86
2019-02-02T07:46:23.667Z,73.68
2019-02-02T07:48:56.072Z,73.64
2019-02-02T07:51:33.839Z,73.41
2019-02-02T07:54:47.717Z,73.57
2019-02-02T07:57:18.964Z,73.58
2019-02-02T07:59:56.580Z,73.68
2019-02-02T08:02:28.873Z,73.82
2019-02-02T08:05:01.666Z,73.85
2019-02-02T08:07:36.911Z,73.90
2019-02-02T08:10:11.108Z,73.95
2019-02-02T08:12:43.960Z,73.90
2019-02-02T08:15:18.947Z,73.75
2019-02-02T08:17:51.346Z,73.56
2019-02-02T08:20:24.918Z,73.56
2019-02-02T08:23:00.240Z,73.61
2019-02-02T08:25:32.512Z,73.51
2019-02-02T08:28:05.706Z,73.59
2019-02-02T08:30:38.184Z,73.54
2019-02-02T08:33:10.676Z,73.46
2019-02-02T08:35:43.210Z,73.43
2019-02-02T08:38:18.005Z,73.32
2019-02-02T08:40:50.353Z,73.05
2019-02-02T08:43:22.580Z,72.94
2019-02-02T08:45:54.861Z,72.77
2019-02-02T08:48:27.103Z,72.61
2019-02-02T08:50:59.345Z,72.39
2019-02-02T08:53:31.853Z,72.39
2019-02-02T08:56:04.061Z,72.31
2019-02-02T08:58:36.290Z,72.18
2019-02-02T09:01:10.790Z,72.16
2019-02-02T09:03:42.942Z,72.05
2019-02-02T09:06:15.179Z,71.76
2019-02-02T09:08:47.487Z,71.64
2019-02-02T09:11:19.685Z,71.82
2019-02-02T09:13:52.049Z,71.73
2019-02-02T09:16:24.375Z,71.87
2019-02-02T09:18:56.702Z,71.46
2019-02-02T09:21:29.034Z,71.24
2019-02-02T09:24:01.539Z,71.12
2019-02-02T09:26:33.931Z,71.02
2019-02-02T09:29:06.267Z,70.97
2019-02-02T09:31:38.463Z,70.87
2019-02-02T09:34:11.956Z,70.74
2019-02-02T09:36:45.412Z,70.60
2019-02-02T09:39:17.803Z,70.53
2019-02-02T09:41:53.612Z,70.31
2019-02-02T09:44:26.270Z,70.09
2019-02-02T09:47:00.242Z,69.78
2019-02-02T09:49:32.621Z,69.49
2019-02-02T09:52:05.026Z,69.00
2019-02-02T09:55:23.404Z,68.46
2019-02-02T09:57:58.365Z,68.19
2019-02-02T10:00:31.827Z,67.67
2019-02-02T10:03:04.627Z,67.36
2019-02-02T10:05:36.908Z,66.39
2019-02-02T10:08:09.294Z,65.72
2019-02-02T10:10:41.734Z,65.34
2019-02-02T10:13:14.339Z,65.10
2019-02-02T10:15:46.650Z,64.00
2019-02-02T10:18:19.898Z,62.89
2019-02-02T10:21:03.336Z,61.16
2019-02-02T10:23:26.214Z,59.89
2019-02-02T10:25:58.548Z,59.15
2019-02-02T10:28:30.781Z,58.68
2019-02-02T10:31:03.112Z,59.35
2019-02-02T10:33:35.336Z,59.35
2019-02-02T10:36:07.924Z,59.92
2019-02-02T10:38:40.244Z,60.72
2019-02-02T10:41:12.631Z,60.85
2019-02-02T10:43:44.822Z,61.15
2019-02-02T10:46:17.060Z,61.51
2019-02-02T10:48:49.302Z,61.39
2019-02-02T10:51:21.556Z,62.38
2019-02-02T10:53:53.882Z,62.59
2019-02-02T10:56:26.122Z,62.74
2019-02-02T10:58:58.351Z,62.79
2019-02-02T11:01:30.582Z,62.65
2019-02-02T11:04:02.874Z,62.55
2019-02-02T11:06:37.752Z,62.10
2019-02-02T11:09:10.823Z,61.95
2019-02-02T11:11:43.214Z,61.96
2019-02-02T11:14:15.495Z,61.66
2019-02-02T11:16:47.921Z,61.40
2019-02-02T11:19:20.180Z,61.54
2019-02-02T11:21:52.430Z,61.51
2019-02-02T11:24:24.608Z,61.62
2019-02-02T11:26:56.877Z,61.78
2019-02-02T11:29:29.046Z,61.53
2019-02-02T11:32:02.812Z,61.08
2019-02-02T11:34:35.217Z,60.90
2019-02-02T11:37:07.458Z,60.88
2019-02-02T11:39:39.650Z,61.22
2019-02-02T11:42:11.876Z,61.49
2019-02-02T11:44:44.145Z,61.91
2019-02-02T11:47:16.520Z,62.07
2019-02-02T11:49:48.829Z,62.27
2019-02-02T11:52:23.224Z,62.57
2019-02-02T11:54:55.056Z,62.87
2019-02-02T11:57:27.652Z,62.77
2019-02-02T11:59:59.907Z,63.08
2019-02-02T12:02:32.273Z,63.00
2019-02-02T12:05:04.919Z,62.71
2019-02-02T12:07:37.325Z,62.72
2019-02-02T12:10:11.510Z,62.86
2019-02-02T12:12:43.932Z,62.80
2019-02-02T12:15:17.448Z,62.37
2019-02-02T12:17:50.202Z,62.13
2019-02-02T12:20:22.826Z,61.90
2019-02-02T12:22:55.095Z,61.95
2019-02-02T12:25:27.493Z,62.19
2019-02-02T12:27:59.860Z,62.48
2019-02-02T12:30:34.010Z,62.53
2019-02-02T12:33:07.027Z,62.38
2019-02-02T12:35:39.559Z,62.17
2019-02-02T12:38:11.861Z,62.16
2019-02-02T12:40:44.120Z,62.16
2019-02-02T12:43:16.527Z,62.20
2019-02-02T12:45:53.716Z,62.42
2019-02-02T12:48:26.152Z,62.65
2019-02-02T12:50:58.539Z,63.06
2019-02-02T12:53:33.485Z,63.14
2019-02-02T12:56:05.862Z,63.16
2019-02-02T12:58:38.133Z,63.02
2019-02-02T13:01:10.379Z,63.09
2019-02-02T13:03:42.693Z,63.29
2019-02-02T13:06:14.966Z,63.50
2019-02-02T13:08:47.279Z,63.46
2019-02-02T13:11:20.594Z,63.70
2019-02-02T13:13:52.802Z,64.08
2019-02-02T13:16:25.038Z,64.08
2019-02-02T13:18:57.318Z,63.61
2019-02-02T13:21:29.588Z,63.69
2019-02-02T13:24:02.256Z,63.97
2019-02-02T13:26:34.498Z,63.86
2019-02-02T13:29:06.733Z,63.52
2019-02-02T13:31:39.173Z,63.49
2019-02-02T13:34:11.435Z,63.16
2019-02-02T13:36:43.769Z,63.43
2019-02-02T13:39:16.036Z,63.64
2019-02-02T13:41:48.379Z,63.92
2019-02-02T13:44:20.611Z,63.95
2019-02-02T13:46:53.134Z,64.45
2019-02-02T13:49:25.570Z,64.67
2019-02-02T13:51:59.203Z,64.91
2019-02-02T13:54:31.513Z,65.01
2019-02-02T13:57:03.894Z,64.85
2019-02-02T13:59:36.212Z,65.08
2019-02-02T14:02:08.530Z,65.21
2019-02-02T14:04:40.860Z,65.07
2019-02-02T14:07:18.176Z,65.21
2019-02-02T14:09:47.029Z,65.22
2019-02-02T14:12:20.300Z,65.20
2019-02-02T14:14:54.540Z,65.35
2019-02-02T14:17:27.960Z,65.28
2019-02-02T14:20:00.354Z,65.50
2019-02-02T14:22:34.923Z,65.45
2019-02-02T14:25:07.975Z,65.44
2019-02-02T14:27:40.575Z,65.69
2019-02-02T14:30:16.087Z,65.99
2019-02-02T14:32:48.553Z,66.05
2019-02-02T14:35:22.177Z,66.09
2019-02-02T14:37:54.552Z,66.03
2019-02-02T14:40:27.128Z,66.05
2019-02-02T14:42:59.415Z,66.23
2019-02-02T14:45:31.699Z,66.21
2019-02-02T14:48:04.062Z,66.18
2019-02-02T14:50:38.605Z,66.41
2019-02-02T14:53:11.087Z,66.48
2019-02-02T14:55:45.930Z,66.51
2019-02-02T14:58:19.380Z,66.82
2019-02-02T15:00:53.887Z,66.82
2019-02-02T15:03:26.359Z,66.76
2019-02-02T15:05:58.679Z,67.00
2019-02-02T15:08:31.087Z,67.25
2019-02-02T15:11:03.335Z,67.17
2019-02-02T15:13:35.589Z,67.24
2019-02-02T15:16:07.856Z,67.19
2019-02-02T15:18:40.184Z,67.28
2019-02-02T15:21:12.497Z,67.41
2019-02-02T15:23:48.211Z,67.33
2019-02-02T15:26:20.588Z,67.32
2019-02-02T15:28:53.014Z,67.61
2019-02-02T15:31:25.365Z,67.56
2019-02-02T15:33:57.805Z,68.15
2019-02-02T15:36:30.061Z,69.09
2019-02-02T15:39:02.538Z,69.59
2019-02-02T15:41:39.558Z,69.66
2019-02-02T15:44:11.970Z,69.67
2019-02-02T15:46:49.075Z,69.61
2019-02-02T15:49:18.321Z,69.95
2019-02-02T15:51:51.530Z,70.12
2019-02-02T15:54:24.310Z,70.44
2019-02-02T15:56:56.534Z,70.91
2019-02-02T15:59:29.037Z,71.45
2019-02-02T16:02:01.351Z,71.54
2019-02-02T16:04:34.832Z,71.75
2019-02-02T16:07:07.332Z,71.95
2019-02-02T16:09:40.679Z,72.09
2019-02-02T16:12:13.122Z,72.15
2019-02-02T16:14:45.564Z,72.27
2019-02-02T16:17:18.014Z,72.14
2019-02-02T16:19:50.346Z,72.33
2019-02-02T16:22:22.653Z,72.31
2019-02-02T16:24:55.141Z,72.26
2019-02-02T16:27:27.491Z,72.30
2019-02-02T16:30:01.535Z,72.39
2019-02-02T16:32:38.274Z,72.49
2019-02-02T16:35:11.239Z,72.54
2019-02-02T16:37:53.200Z,72.71
2019-02-02T16:40:29.191Z,72.70
2019-02-02T16:43:01.544Z,72.91
2019-02-02T16:45:33.960Z,72.98
2019-02-02T16:48:07.089Z,73.13
2019-02-02T16:50:39.515Z,73.17
2019-02-02T16:53:11.797Z,73.38
2019-02-02T16:55:55.834Z,73.52
2019-02-02T16:59:00.468Z,73.67
2019-02-02T17:01:34.895Z,73.90
2019-02-02T17:04:16.314Z,74.27
2019-02-02T17:06:49.223Z,74.41
2019-02-02T17:09:21.692Z,74.57
2019-02-02T17:11:54.081Z,74.55
2019-02-02T17:14:28.741Z,74.50
2019-02-02T17:17:57.451Z,74.40
2019-02-02T17:21:01.719Z,74.46
2019-02-02T17:23:43.447Z,74.77
2019-02-02T17:26:15.878Z,74.89
2019-02-02T17:28:48.693Z,75.02
2019-02-02T17:31:21.278Z,75.08
2019-02-02T17:33:56.250Z,75.28
2019-02-02T17:36:28.953Z,75.23
2019-02-02T17:39:01.633Z,75.11
2019-02-02T17:41:35.638Z,75.20
2019-02-02T17:44:08.550Z,74.99
2019-02-02T17:46:58.541Z,74.82
2019-02-02T17:49:43.245Z,74.73
2019-02-02T17:52:19.831Z,74.79
2019-02-02T17:55:08.870Z,74.81
2019-02-02T17:58:04.371Z,74.77
2019-02-02T18:00:42.994Z,74.44
2019-02-02T18:03:16.618Z,74.13
2019-02-02T18:05:53.136Z,74.14
2019-02-02T18:08:25.906Z,74.11
2019-02-02T18:10:58.649Z,74.01
2019-02-02T18:13:32.197Z,73.78
2019-02-02T18:16:04.795Z,73.59
2019-02-02T18:18:37.713Z,73.39
2019-02-02T18:21:17.163Z,73.03
2019-02-02T18:23:49.740Z,72.87
2019-02-02T18:26:23.289Z,72.90
2019-02-02T18:28:56.497Z,73.40
2019-02-02T18:31:31.433Z,73.69
2019-02-02T18:34:07.476Z,74.24
2019-02-02T18:36:40.629Z,74.60
2019-02-02T18:39:18.785Z,74.79
2019-02-02T18:41:51.545Z,75.23
2019-02-02T18:44:25.516Z,75.40
2019-02-02T18:47:05.460Z,75.47
2019-02-02T18:49:38.208Z,75.49
2019-02-02T18:52:11.103Z,75.51
2019-02-02T18:54:43.546Z,75.63
2019-02-02T18:57:20.346Z,75.48
2019-02-02T19:03:07.131Z,75.27
2019-02-02T19:06:11.511Z,75.19
2019-02-02T19:08:45.350Z,75.12
2019-02-02T19:11:18.026Z,75.13
2019-02-02T19:14:01.249Z,75.18
2019-02-02T19:16:33.952Z,75.15
2019-02-02T19:19:08.426Z,75.00
2019-02-02T19:21:41.463Z,75.07
2019-02-02T19:24:13.953Z,75.07
2019-02-02T19:26:46.472Z,75.10
2019-02-02T19:29:19.036Z,75.37
2019-02-02T19:31:51.405Z,75.35
2019-02-02T19:34:25.500Z,75.51
2019-02-02T19:37:03.141Z,75.50
2019-02-02T19:39:39.768Z,75.47
2019-02-02T19:42:12.204Z,75.37
2019-02-02T19:44:48.876Z,75.28
2019-02-02T19:47:21.545Z,75.20
2019-02-02T19:49:54.387Z,75.13
2019-02-02T19:52:28.475Z,75.07
2019-02-02T19:55:00.980Z,75.01
2019-02-02T19:57:45.564Z,74.97
2019-02-02T20:00:22.155Z,74.73
2019-02-02T20:02:55.236Z,74.77
2019-02-02T20:05:29.279Z,74.64
2019-02-02T20:08:03.578Z,74.54
2019-02-02T20:10:43.705Z,74.40
2019-02-02T20:13:17.690Z,74.34
2019-02-02T20:15:50.334Z,74.32
2019-02-02T20:18:25.528Z,74.34
2019-02-02T20:20:59.704Z,74.42
2019-02-02T20:23:38.418Z,74.29
2019-02-02T20:26:09.013Z,74.16
2019-02-02T20:28:41.547Z,74.29
2019-02-02T20:31:14.024Z,74.35
2019-02-02T20:33:46.334Z,74.13
2019-02-02T20:36:18.720Z,74.16
2019-02-02T20:38:51.305Z,74.27
2019-02-02T20:41:25.360Z,74.20
2019-02-02T20:43:57.912Z,74.26
2019-02-02T20:46:30.297Z,74.33
2019-02-02T20:49:02.705Z,74.32
2019-02-02T20:51:35.055Z,74.30
2019-02-02T20:54:07.963Z,74.32
2019-02-02T20:56:40.454Z,74.17
2019-02-02T20:59:12.934Z,73.91
2019-02-02T21:01:45.587Z,74.00
2019-02-02T21:04:18.104Z,73.87
2019-02-02T21:06:50.444Z,73.96
2019-02-02T21:09:22.972Z,74.11
2019-02-02T21:11:57.412Z,74.12
2019-02-02T21:14:30.476Z,74.19
2019-02-02T21:17:03.834Z,74.21
2019-02-02T21:19:37.570Z,74.07
2019-02-02T21:22:10.705Z,73.97
2019-02-02T21:24:46.606Z,73.99
2019-02-02T21:27:23.491Z,74.07
2019-02-02T21:30:03.295Z,74.22
2019-02-02T21:32:37.921Z,74.18
2019-02-02T21:35:16.613Z,74.08
2019-02-02T21:37:52.497Z,73.92
2019-02-02T21:40:30.213Z,73.83
2019-02-02T21:43:14.094Z,73.87
2019-02-02T21:45:46.408Z,73.84
2019-02-02T21:48:18.835Z,74.11
2019-02-02T21:50:53.090Z,74.25
2019-02-02T21:53:30.010Z,74.43
2019-02-02T21:56:03.357Z,74.48
2019-02-02T21:58:41.028Z,74.57
2019-02-02T22:01:23.726Z,74.54
2019-02-02T22:03:51.377Z,74.45
2019-02-02T22:06:24.083Z,74.32
2019-02-02T22:08:56.736Z,74.15
2019-02-02T22:11:29.184Z,74.12
2019-02-02T22:14:01.495Z,74.10
2019-02-02T22:16:34.850Z,74.15
2019-02-02T22:19:07.903Z,74.13
2019-02-02T22:21:42.021Z,73.98
2019-02-02T22:24:15.842Z,73.93
2019-02-02T22:26:52.379Z,73.88
2019-02-02T22:29:26.465Z,73.82
2019-02-02T22:31:59.094Z,73.79
2019-02-02T22:34:31.402Z,73.79
2019-02-02T22:37:19.495Z,73.81
2019-02-02T22:39:58.329Z,73.61
2019-02-02T22:42:34.296Z,73.67
2019-02-02T22:45:11.545Z,73.74
2019-02-02T22:47:43.392Z,73.73
2019-02-02T22:50:23.967Z,73.73
2019-02-02T22:52:56.570Z,73.66
2019-02-02T22:55:28.808Z,73.68
2019-02-02T22:58:01.077Z,73.78
2019-02-02T23:01:03.856Z,73.94
2019-02-02T23:03:48.655Z,74.03
2019-02-02T23:06:49.749Z,74.17
2019-02-02T23:10:14.370Z,74.33
2019-02-02T23:13:26.440Z,74.27
2019-02-02T23:16:32.430Z,74.29
2019-02-02T23:19:06.027Z,74.47
2019-02-02T23:21:38.480Z,74.34
2019-02-02T23:24:12.312Z,74.50
2019-02-02T23:26:44.692Z,74.55
2019-02-02T23:29:20.202Z,74.57
2019-02-02T23:31:52.757Z,74.43
2019-02-02T23:34:27.721Z,74.40
2019-02-02T23:37:00.140Z,74.50
2019-02-02T23:39:36.868Z,74.47
2019-02-02T23:42:38.850Z,74.48
2019-02-02T23:45:16.263Z,74.61
2019-02-02T23:47:53.231Z,74.69
2019-02-02T23:50:28.423Z,74.52
2019-02-02T23:53:01.086Z,74.41
2019-02-02T23:55:40.521Z,74.48
2019-02-02T23:58:15.507Z,74.44
